sensor_id;sensor_type;location;lat;lon;timestamp;pressure;altitude;pressure_sealevel;temperature;humidity
51067;BME280;37112;45.892;-123.962;2022-10-16T00:00:34;100816.11;;;28.14;28.86
51067;BME280;37112;45.892;-123.962;2022-10-16T00:03:08;100817.77;;;27.33;29.79
51067;BME280;37112;45.892;-123.962;2022-10-16T00:05:26;100821.23;;;26.68;31.11
51067;BME280;37112;45.892;-123.962;2022-10-16T00:07:41;100822.50;;;26.02;32.46
51067;BME280;37112;45.892;-123.962;2022-10-16T00:09:58;100819.28;;;25.39;33.82
51067;BME280;37112;45.892;-123.962;2022-10-16T00:12:11;100821.91;;;24.77;35.00
51067;BME280;37112;45.892;-123.962;2022-10-16T00:14:24;100825.04;;;24.21;35.99
51067;BME280;37112;45.892;-123.962;2022-10-16T00:16:38;100825.45;;;23.73;36.87
51067;BME280;37112;45.892;-123.962;2022-10-16T00:18:51;100821.64;;;23.31;38.05
51067;BME280;37112;45.892;-123.962;2022-10-16T00:21:09;100836.17;;;22.88;39.00
51067;BME280;37112;45.892;-123.962;2022-10-16T00:23:23;100842.18;;;22.52;40.02
51067;BME280;37112;45.892;-123.962;2022-10-16T00:25:36;100840.22;;;22.16;41.27
51067;BME280;37112;45.892;-123.962;2022-10-16T00:27:49;100847.16;;;21.82;42.08
51067;BME280;37112;45.892;-123.962;2022-10-16T00:30:02;100842.73;;;21.51;42.76
51067;BME280;37112;45.892;-123.962;2022-10-16T00:32:16;100850.12;;;21.20;43.16
51067;BME280;37112;45.892;-123.962;2022-10-16T00:34:29;100851.86;;;20.98;43.75
51067;BME280;37112;45.892;-123.962;2022-10-16T00:36:42;100850.99;;;20.78;44.17
51067;BME280;37112;45.892;-123.962;2022-10-16T00:38:56;100857.77;;;20.55;45.43
51067;BME280;37112;45.892;-123.962;2022-10-16T00:41:14;100857.62;;;20.33;46.22
51067;BME280;37112;45.892;-123.962;2022-10-16T00:43:39;100863.14;;;20.04;46.46
51067;BME280;37112;45.892;-123.962;2022-10-16T00:45:52;100868.90;;;19.84;47.15
51067;BME280;37112;45.892;-123.962;2022-10-16T00:48:06;100864.84;;;19.66;47.90
51067;BME280;37112;45.892;-123.962;2022-10-16T00:50:27;100860.86;;;19.43;48.46
51067;BME280;37112;45.892;-123.962;2022-10-16T00:52:44;100859.05;;;19.15;49.88
51067;BME280;37112;45.892;-123.962;2022-10-16T00:54:59;100869.52;;;18.93;50.26
51067;BME280;37112;45.892;-123.962;2022-10-16T00:57:13;100871.28;;;18.76;51.21
51067;BME280;37112;45.892;-123.962;2022-10-16T00:59:29;100869.94;;;18.49;52.00
51067;BME280;37112;45.892;-123.962;2022-10-16T01:01:43;100873.55;;;18.21;53.28
51067;BME280;37112;45.892;-123.962;2022-10-16T01:03:56;100875.45;;;17.87;54.48
51067;BME280;37112;45.892;-123.962;2022-10-16T01:06:24;100878.02;;;17.54;55.56
51067;BME280;37112;45.892;-123.962;2022-10-16T01:08:48;100878.71;;;17.20;56.02
51067;BME280;37112;45.892;-123.962;2022-10-16T01:11:06;100883.63;;;16.94;56.52
51067;BME280;37112;45.892;-123.962;2022-10-16T01:13:27;100882.91;;;16.72;57.71
51067;BME280;37112;45.892;-123.962;2022-10-16T01:15:47;100888.05;;;16.53;57.76
51067;BME280;37112;45.892;-123.962;2022-10-16T01:18:05;100891.95;;;16.39;57.99
51067;BME280;37112;45.892;-123.962;2022-10-16T01:20:28;100897.00;;;16.27;58.72
51067;BME280;37112;45.892;-123.962;2022-10-16T01:22:50;100901.92;;;16.12;59.16
51067;BME280;37112;45.892;-123.962;2022-10-16T01:25:09;100901.91;;;16.00;59.40
51067;BME280;37112;45.892;-123.962;2022-10-16T01:27:27;100908.46;;;15.86;59.31
51067;BME280;37112;45.892;-123.962;2022-10-16T01:29:51;100911.09;;;15.76;59.86
51067;BME280;37112;45.892;-123.962;2022-10-16T01:32:15;100914.13;;;15.68;60.22
51067;BME280;37112;45.892;-123.962;2022-10-16T01:34:35;100922.86;;;15.62;60.01
51067;BME280;37112;45.892;-123.962;2022-10-16T01:36:56;100924.73;;;15.55;60.31
51067;BME280;37112;45.892;-123.962;2022-10-16T01:39:14;100936.33;;;15.45;61.42
51067;BME280;37112;45.892;-123.962;2022-10-16T01:41:33;100946.63;;;15.35;61.66
51067;BME280;37112;45.892;-123.962;2022-10-16T01:43:50;100959.00;;;15.22;62.74
51067;BME280;37112;45.892;-123.962;2022-10-16T01:46:06;100975.98;;;15.07;63.36
51067;BME280;37112;45.892;-123.962;2022-10-16T01:48:22;100982.92;;;14.92;63.61
51067;BME280;37112;45.892;-123.962;2022-10-16T01:50:38;100997.16;;;14.75;63.57
51067;BME280;37112;45.892;-123.962;2022-10-16T01:52:55;100999.59;;;14.61;63.46
51067;BME280;37112;45.892;-123.962;2022-10-16T01:55:11;100996.83;;;14.48;64.51
51067;BME280;37112;45.892;-123.962;2022-10-16T01:57:27;101005.30;;;14.36;63.79
51067;BME280;37112;45.892;-123.962;2022-10-16T01:59:45;101013.23;;;14.26;64.18
51067;BME280;37112;45.892;-123.962;2022-10-16T02:02:04;101014.83;;;14.19;64.79
51067;BME280;37112;45.892;-123.962;2022-10-16T02:04:22;101017.85;;;14.12;64.53
51067;BME280;37112;45.892;-123.962;2022-10-16T02:06:37;101016.34;;;14.04;64.79
51067;BME280;37112;45.892;-123.962;2022-10-16T02:08:50;101017.94;;;13.99;64.96
51067;BME280;37112;45.892;-123.962;2022-10-16T02:11:03;101020.87;;;13.96;65.53
51067;BME280;37112;45.892;-123.962;2022-10-16T02:13:19;101024.16;;;13.91;65.63
51067;BME280;37112;45.892;-123.962;2022-10-16T02:15:36;101022.52;;;13.86;66.02
51067;BME280;37112;45.892;-123.962;2022-10-16T02:17:49;101022.43;;;13.81;66.81
51067;BME280;37112;45.892;-123.962;2022-10-16T02:20:03;101023.67;;;13.72;67.40
51067;BME280;37112;45.892;-123.962;2022-10-16T02:22:20;101024.92;;;13.64;67.45
51067;BME280;37112;45.892;-123.962;2022-10-16T02:24:38;101026.19;;;13.62;67.73
51067;BME280;37112;45.892;-123.962;2022-10-16T02:26:59;101030.15;;;13.61;68.08
51067;BME280;37112;45.892;-123.962;2022-10-16T02:29:18;101032.87;;;13.58;69.15
51067;BME280;37112;45.892;-123.962;2022-10-16T02:31:35;101036.86;;;13.50;68.57
51067;BME280;37112;45.892;-123.962;2022-10-16T02:33:53;101046.10;;;13.48;69.13
51067;BME280;37112;45.892;-123.962;2022-10-16T02:36:08;101048.27;;;13.45;69.12
51067;BME280;37112;45.892;-123.962;2022-10-16T02:38:22;101053.61;;;13.46;69.28
51067;BME280;37112;45.892;-123.962;2022-10-16T02:40:36;101054.09;;;13.44;69.32
51067;BME280;37112;45.892;-123.962;2022-10-16T02:42:53;101056.52;;;13.45;69.43
51067;BME280;37112;45.892;-123.962;2022-10-16T02:45:07;101056.77;;;13.46;69.39
51067;BME280;37112;45.892;-123.962;2022-10-16T02:47:21;101061.71;;;13.49;69.74
51067;BME280;37112;45.892;-123.962;2022-10-16T02:49:35;101067.84;;;13.46;69.50
51067;BME280;37112;45.892;-123.962;2022-10-16T02:51:48;101068.08;;;13.45;69.56
51067;BME280;37112;45.892;-123.962;2022-10-16T02:54:01;101062.09;;;13.44;70.16
51067;BME280;37112;45.892;-123.962;2022-10-16T02:56:14;101064.01;;;13.40;69.94
51067;BME280;37112;45.892;-123.962;2022-10-16T02:58:33;101062.30;;;13.36;70.02
51067;BME280;37112;45.892;-123.962;2022-10-16T03:00:46;101061.36;;;13.35;70.10
51067;BME280;37112;45.892;-123.962;2022-10-16T03:03:00;101064.55;;;13.35;70.22
51067;BME280;37112;45.892;-123.962;2022-10-16T03:05:14;101064.04;;;13.37;70.28
51067;BME280;37112;45.892;-123.962;2022-10-16T03:07:27;101059.70;;;13.38;70.56
51067;BME280;37112;45.892;-123.962;2022-10-16T03:09:41;101064.77;;;13.35;70.85
51067;BME280;37112;45.892;-123.962;2022-10-16T03:11:55;101069.98;;;13.32;70.83
51067;BME280;37112;45.892;-123.962;2022-10-16T03:14:08;101070.36;;;13.29;71.07
51067;BME280;37112;45.892;-123.962;2022-10-16T03:16:22;101076.20;;;13.25;70.95
51067;BME280;37112;45.892;-123.962;2022-10-16T03:18:38;101075.34;;;13.24;71.16
51067;BME280;37112;45.892;-123.962;2022-10-16T03:20:52;101083.06;;;13.24;71.30
51067;BME280;37112;45.892;-123.962;2022-10-16T03:23:05;101078.44;;;13.23;71.30
51067;BME280;37112;45.892;-123.962;2022-10-16T03:25:20;101083.64;;;13.26;71.42
51067;BME280;37112;45.892;-123.962;2022-10-16T03:27:33;101083.34;;;13.27;71.69
51067;BME280;37112;45.892;-123.962;2022-10-16T03:29:47;101079.75;;;13.25;71.91
51067;BME280;37112;45.892;-123.962;2022-10-16T03:32:00;101080.85;;;13.22;71.87
51067;BME280;37112;45.892;-123.962;2022-10-16T03:34:15;101077.66;;;13.19;72.03
51067;BME280;37112;45.892;-123.962;2022-10-16T03:36:29;101077.02;;;13.18;72.17
51067;BME280;37112;45.892;-123.962;2022-10-16T03:38:42;101077.92;;;13.16;72.27
51067;BME280;37112;45.892;-123.962;2022-10-16T03:40:56;101078.95;;;13.11;72.40
51067;BME280;37112;45.892;-123.962;2022-10-16T03:43:10;101079.69;;;13.05;72.48
51067;BME280;37112;45.892;-123.962;2022-10-16T03:45:24;101076.75;;;13.02;72.60
51067;BME280;37112;45.892;-123.962;2022-10-16T03:47:37;101079.30;;;13.01;72.96
51067;BME280;37112;45.892;-123.962;2022-10-16T03:49:51;101078.30;;;13.00;73.09
51067;BME280;37112;45.892;-123.962;2022-10-16T03:52:05;101075.24;;;13.00;73.17
51067;BME280;37112;45.892;-123.962;2022-10-16T03:54:18;101082.02;;;13.00;73.19
51067;BME280;37112;45.892;-123.962;2022-10-16T03:56:33;101076.95;;;12.99;73.38
51067;BME280;37112;45.892;-123.962;2022-10-16T03:58:46;101078.98;;;12.96;73.51
51067;BME280;37112;45.892;-123.962;2022-10-16T04:01:00;101082.73;;;12.96;73.82
51067;BME280;37112;45.892;-123.962;2022-10-16T04:03:13;101086.33;;;12.95;73.80
51067;BME280;37112;45.892;-123.962;2022-10-16T04:05:27;101087.50;;;12.96;73.97
51067;BME280;37112;45.892;-123.962;2022-10-16T04:07:41;101089.10;;;12.99;74.00
51067;BME280;37112;45.892;-123.962;2022-10-16T04:09:54;101093.28;;;13.03;73.98
51067;BME280;37112;45.892;-123.962;2022-10-16T04:12:09;101090.04;;;13.05;74.19
51067;BME280;37112;45.892;-123.962;2022-10-16T04:14:23;101092.73;;;13.08;74.13
51067;BME280;37112;45.892;-123.962;2022-10-16T04:16:36;101087.08;;;13.09;74.10
51067;BME280;37112;45.892;-123.962;2022-10-16T04:18:50;101088.21;;;13.11;74.06
51067;BME280;37112;45.892;-123.962;2022-10-16T04:21:07;101088.77;;;13.10;73.91
51067;BME280;37112;45.892;-123.962;2022-10-16T04:23:20;101090.13;;;13.09;73.97
51067;BME280;37112;45.892;-123.962;2022-10-16T04:25:34;101089.04;;;13.07;74.07
51067;BME280;37112;45.892;-123.962;2022-10-16T04:27:48;101089.35;;;13.03;74.20
51067;BME280;37112;45.892;-123.962;2022-10-16T04:30:02;101088.10;;;13.03;74.19
51067;BME280;37112;45.892;-123.962;2022-10-16T04:32:16;101091.47;;;13.03;74.36
51067;BME280;37112;45.892;-123.962;2022-10-16T04:34:29;101092.73;;;13.03;74.46
51067;BME280;37112;45.892;-123.962;2022-10-16T04:36:42;101092.05;;;13.03;74.47
51067;BME280;37112;45.892;-123.962;2022-10-16T04:38:56;101095.27;;;13.02;74.65
51067;BME280;37112;45.892;-123.962;2022-10-16T04:41:10;101100.30;;;13.02;74.67
51067;BME280;37112;45.892;-123.962;2022-10-16T04:43:23;101099.75;;;13.02;74.74
51067;BME280;37112;45.892;-123.962;2022-10-16T04:45:37;101101.48;;;13.02;74.90
51067;BME280;37112;45.892;-123.962;2022-10-16T04:47:51;101101.58;;;13.04;74.86
51067;BME280;37112;45.892;-123.962;2022-10-16T04:50:04;101107.64;;;13.06;74.95
51067;BME280;37112;45.892;-123.962;2022-10-16T04:52:18;101107.69;;;13.05;75.00
51067;BME280;37112;45.892;-123.962;2022-10-16T04:54:32;101102.05;;;13.04;74.94
51067;BME280;37112;45.892;-123.962;2022-10-16T04:56:45;101107.56;;;13.05;75.07
51067;BME280;37112;45.892;-123.962;2022-10-16T04:59:01;101107.44;;;13.04;75.14
51067;BME280;37112;45.892;-123.962;2022-10-16T05:01:14;101106.67;;;13.07;75.25
51067;BME280;37112;45.892;-123.962;2022-10-16T05:03:27;101107.66;;;13.08;75.56
51067;BME280;37112;45.892;-123.962;2022-10-16T05:05:44;101111.43;;;13.08;75.34
51067;BME280;37112;45.892;-123.962;2022-10-16T05:07:58;101108.80;;;13.10;75.50
51067;BME280;37112;45.892;-123.962;2022-10-16T05:10:11;101115.56;;;13.10;75.47
51067;BME280;37112;45.892;-123.962;2022-10-16T05:12:25;101112.33;;;13.08;75.56
51067;BME280;37112;45.892;-123.962;2022-10-16T05:14:38;101112.35;;;13.05;75.45
51067;BME280;37112;45.892;-123.962;2022-10-16T05:16:51;101117.46;;;13.06;75.58
51067;BME280;37112;45.892;-123.962;2022-10-16T05:19:04;101123.13;;;13.06;75.77
51067;BME280;37112;45.892;-123.962;2022-10-16T05:21:38;101123.86;;;13.06;75.79
51067;BME280;37112;45.892;-123.962;2022-10-16T05:23:51;101127.02;;;13.04;76.10
51067;BME280;37112;45.892;-123.962;2022-10-16T05:26:05;101128.09;;;13.02;76.16
51067;BME280;37112;45.892;-123.962;2022-10-16T05:28:19;101126.91;;;12.98;76.24
51067;BME280;37112;45.892;-123.962;2022-10-16T05:30:32;101124.71;;;12.97;76.48
51067;BME280;37112;45.892;-123.962;2022-10-16T05:32:48;101127.55;;;12.94;76.49
51067;BME280;37112;45.892;-123.962;2022-10-16T05:35:02;101127.79;;;12.94;76.63
51067;BME280;37112;45.892;-123.962;2022-10-16T05:37:21;101130.27;;;12.94;76.60
51067;BME280;37112;45.892;-123.962;2022-10-16T05:39:34;101130.68;;;12.95;76.69
51067;BME280;37112;45.892;-123.962;2022-10-16T05:41:49;101134.81;;;12.95;76.91
51067;BME280;37112;45.892;-123.962;2022-10-16T05:44:05;101137.91;;;12.92;76.76
51067;BME280;37112;45.892;-123.962;2022-10-16T05:46:18;101138.50;;;12.91;76.90
51067;BME280;37112;45.892;-123.962;2022-10-16T05:48:32;101137.16;;;12.90;77.38
51067;BME280;37112;45.892;-123.962;2022-10-16T05:50:45;101139.86;;;12.89;77.26
51067;BME280;37112;45.892;-123.962;2022-10-16T05:52:59;101136.41;;;12.90;77.27
51067;BME280;37112;45.892;-123.962;2022-10-16T05:55:12;101140.95;;;12.89;77.28
51067;BME280;37112;45.892;-123.962;2022-10-16T05:57:26;101139.98;;;12.88;77.23
51067;BME280;37112;45.892;-123.962;2022-10-16T05:59:39;101133.09;;;12.87;77.26
51067;BME280;37112;45.892;-123.962;2022-10-16T06:01:52;101136.84;;;12.87;77.33
51067;BME280;37112;45.892;-123.962;2022-10-16T06:04:05;101134.98;;;12.88;77.45
51067;BME280;37112;45.892;-123.962;2022-10-16T06:06:20;101135.72;;;12.88;77.33
51067;BME280;37112;45.892;-123.962;2022-10-16T06:08:34;101136.02;;;12.88;77.46
51067;BME280;37112;45.892;-123.962;2022-10-16T06:10:48;101137.62;;;12.88;77.56
51067;BME280;37112;45.892;-123.962;2022-10-16T06:13:04;101143.28;;;12.89;77.59
51067;BME280;37112;45.892;-123.962;2022-10-16T06:15:17;101138.61;;;12.89;77.74
51067;BME280;37112;45.892;-123.962;2022-10-16T06:17:31;101142.38;;;12.87;77.75
51067;BME280;37112;45.892;-123.962;2022-10-16T06:19:44;101140.54;;;12.85;77.84
51067;BME280;37112;45.892;-123.962;2022-10-16T06:21:57;101140.50;;;12.82;77.97
51067;BME280;37112;45.892;-123.962;2022-10-16T06:24:12;101138.79;;;12.81;77.93
51067;BME280;37112;45.892;-123.962;2022-10-16T06:26:26;101139.45;;;12.82;78.02
51067;BME280;37112;45.892;-123.962;2022-10-16T06:28:41;101139.27;;;12.82;78.05
51067;BME280;37112;45.892;-123.962;2022-10-16T06:31:01;101137.90;;;12.82;78.17
51067;BME280;37112;45.892;-123.962;2022-10-16T06:33:17;101141.79;;;12.82;78.21
51067;BME280;37112;45.892;-123.962;2022-10-16T06:35:30;101137.30;;;12.82;78.30
51067;BME280;37112;45.892;-123.962;2022-10-16T06:37:43;101137.98;;;12.83;78.35
51067;BME280;37112;45.892;-123.962;2022-10-16T06:39:56;101138.25;;;12.84;78.36
51067;BME280;37112;45.892;-123.962;2022-10-16T06:42:10;101143.51;;;12.86;78.41
51067;BME280;37112;45.892;-123.962;2022-10-16T06:44:23;101143.85;;;12.86;78.51
51067;BME280;37112;45.892;-123.962;2022-10-16T06:46:37;101145.39;;;12.84;78.36
51067;BME280;37112;45.892;-123.962;2022-10-16T06:48:50;101149.91;;;12.83;78.40
51067;BME280;37112;45.892;-123.962;2022-10-16T06:51:06;101151.02;;;12.82;78.47
51067;BME280;37112;45.892;-123.962;2022-10-16T06:53:20;101149.52;;;12.81;78.53
51067;BME280;37112;45.892;-123.962;2022-10-16T06:55:33;101150.50;;;12.80;78.45
51067;BME280;37112;45.892;-123.962;2022-10-16T06:57:49;101151.02;;;12.78;78.46
51067;BME280;37112;45.892;-123.962;2022-10-16T07:00:02;101147.88;;;12.76;78.66
51067;BME280;37112;45.892;-123.962;2022-10-16T07:02:15;101151.44;;;12.74;78.62
51067;BME280;37112;45.892;-123.962;2022-10-16T07:04:28;101157.91;;;12.73;78.81
51067;BME280;37112;45.892;-123.962;2022-10-16T07:06:42;101159.99;;;12.72;78.88
51067;BME280;37112;45.892;-123.962;2022-10-16T07:08:55;101162.30;;;12.69;78.88
51067;BME280;37112;45.892;-123.962;2022-10-16T07:11:11;101162.39;;;12.68;78.95
51067;BME280;37112;45.892;-123.962;2022-10-16T07:13:25;101161.90;;;12.67;79.12
51067;BME280;37112;45.892;-123.962;2022-10-16T07:15:38;101157.63;;;12.67;79.20
51067;BME280;37112;45.892;-123.962;2022-10-16T07:17:51;101162.33;;;12.69;79.35
51067;BME280;37112;45.892;-123.962;2022-10-16T07:20:04;101166.03;;;12.69;79.28
51067;BME280;37112;45.892;-123.962;2022-10-16T07:22:18;101158.28;;;12.71;79.30
51067;BME280;37112;45.892;-123.962;2022-10-16T07:24:31;101159.05;;;12.72;79.55
51067;BME280;37112;45.892;-123.962;2022-10-16T07:26:44;101155.81;;;12.75;79.42
51067;BME280;37112;45.892;-123.962;2022-10-16T07:28:58;101160.16;;;12.74;79.21
51067;BME280;37112;45.892;-123.962;2022-10-16T07:31:15;101154.55;;;12.73;79.21
51067;BME280;37112;45.892;-123.962;2022-10-16T07:33:28;101158.19;;;12.74;79.49
51067;BME280;37112;45.892;-123.962;2022-10-16T07:35:50;101155.05;;;12.76;79.74
51067;BME280;37112;45.892;-123.962;2022-10-16T07:38:03;101156.77;;;12.77;79.62
51067;BME280;37112;45.892;-123.962;2022-10-16T07:40:17;101158.92;;;12.77;79.60
51067;BME280;37112;45.892;-123.962;2022-10-16T07:42:30;101155.69;;;12.77;79.77
51067;BME280;37112;45.892;-123.962;2022-10-16T07:44:43;101159.40;;;12.77;79.72
51067;BME280;37112;45.892;-123.962;2022-10-16T07:46:57;101166.20;;;12.77;79.64
51067;BME280;37112;45.892;-123.962;2022-10-16T07:49:11;101170.77;;;12.75;79.68
51067;BME280;37112;45.892;-123.962;2022-10-16T07:51:25;101175.89;;;12.73;79.63
51067;BME280;37112;45.892;-123.962;2022-10-16T07:53:38;101180.56;;;12.73;79.78
51067;BME280;37112;45.892;-123.962;2022-10-16T07:55:52;101178.31;;;12.72;79.87
51067;BME280;37112;45.892;-123.962;2022-10-16T07:58:05;101179.39;;;12.69;79.83
51067;BME280;37112;45.892;-123.962;2022-10-16T08:00:18;101178.30;;;12.67;79.89
51067;BME280;37112;45.892;-123.962;2022-10-16T08:02:31;101181.91;;;12.66;79.88
51067;BME280;37112;45.892;-123.962;2022-10-16T08:04:44;101183.73;;;12.66;80.01
51067;BME280;37112;45.892;-123.962;2022-10-16T08:07:00;101188.55;;;12.66;80.21
51067;BME280;37112;45.892;-123.962;2022-10-16T08:09:13;101191.23;;;12.65;80.31
51067;BME280;37112;45.892;-123.962;2022-10-16T08:11:27;101189.11;;;12.66;80.48
51067;BME280;37112;45.892;-123.962;2022-10-16T08:13:40;101188.85;;;12.64;80.40
51067;BME280;37112;45.892;-123.962;2022-10-16T08:15:53;101186.62;;;12.65;80.58
51067;BME280;37112;45.892;-123.962;2022-10-16T08:18:09;101187.16;;;12.67;80.69
51067;BME280;37112;45.892;-123.962;2022-10-16T08:20:22;101183.23;;;12.68;80.64
51067;BME280;37112;45.892;-123.962;2022-10-16T08:22:35;101185.03;;;12.70;80.58
51067;BME280;37112;45.892;-123.962;2022-10-16T08:24:48;101182.05;;;12.72;80.60
51067;BME280;37112;45.892;-123.962;2022-10-16T08:27:02;101184.68;;;12.72;80.80
51067;BME280;37112;45.892;-123.962;2022-10-16T08:29:15;101182.29;;;12.74;80.74
51067;BME280;37112;45.892;-123.962;2022-10-16T08:31:28;101179.73;;;12.74;80.73
51067;BME280;37112;45.892;-123.962;2022-10-16T08:33:43;101179.84;;;12.75;80.72
51067;BME280;37112;45.892;-123.962;2022-10-16T08:35:57;101180.42;;;12.75;80.74
51067;BME280;37112;45.892;-123.962;2022-10-16T08:38:10;101173.63;;;12.75;80.82
51067;BME280;37112;45.892;-123.962;2022-10-16T08:40:26;101171.08;;;12.76;80.82
51067;BME280;37112;45.892;-123.962;2022-10-16T08:42:52;101168.73;;;12.76;81.06
51067;BME280;37112;45.892;-123.962;2022-10-16T08:45:29;101169.37;;;12.78;81.05
51067;BME280;37112;45.892;-123.962;2022-10-16T08:47:53;101161.66;;;12.76;81.16
51067;BME280;37112;45.892;-123.962;2022-10-16T08:50:15;101166.20;;;12.74;81.06
51067;BME280;37112;45.892;-123.962;2022-10-16T08:52:32;101172.48;;;12.74;81.01
51067;BME280;37112;45.892;-123.962;2022-10-16T08:54:55;101172.23;;;12.75;81.05
51067;BME280;37112;45.892;-123.962;2022-10-16T08:57:13;101173.52;;;12.74;81.11
51067;BME280;37112;45.892;-123.962;2022-10-16T08:59:32;101178.80;;;12.73;81.18
51067;BME280;37112;45.892;-123.962;2022-10-16T09:01:49;101181.77;;;12.74;81.37
51067;BME280;37112;45.892;-123.962;2022-10-16T09:06:46;101190.75;;;12.75;81.26
51067;BME280;37112;45.892;-123.962;2022-10-16T09:09:12;101188.79;;;12.75;81.25
51067;BME280;37112;45.892;-123.962;2022-10-16T09:11:38;101191.84;;;12.78;81.47
51067;BME280;37112;45.892;-123.962;2022-10-16T09:14:00;101196.83;;;12.77;81.43
51067;BME280;37112;45.892;-123.962;2022-10-16T09:16:20;101200.54;;;12.78;81.35
51067;BME280;37112;45.892;-123.962;2022-10-16T09:18:41;101201.27;;;12.80;81.54
51067;BME280;37112;45.892;-123.962;2022-10-16T09:21:01;101201.16;;;12.81;81.42
51067;BME280;37112;45.892;-123.962;2022-10-16T09:23:19;101202.36;;;12.82;81.41
51067;BME280;37112;45.892;-123.962;2022-10-16T09:25:36;101208.38;;;12.83;81.41
51067;BME280;37112;45.892;-123.962;2022-10-16T09:27:54;101213.98;;;12.82;81.32
51067;BME280;37112;45.892;-123.962;2022-10-16T09:30:15;101217.05;;;12.79;81.38
51067;BME280;37112;45.892;-123.962;2022-10-16T09:32:30;101216.05;;;12.78;81.43
51067;BME280;37112;45.892;-123.962;2022-10-16T09:34:47;101218.05;;;12.77;81.65
51067;BME280;37112;45.892;-123.962;2022-10-16T09:37:01;101223.16;;;12.75;81.42
51067;BME280;37112;45.892;-123.962;2022-10-16T09:39:16;101223.03;;;12.74;81.65
51067;BME280;37112;45.892;-123.962;2022-10-16T09:41:29;101220.09;;;12.73;81.66
51067;BME280;37112;45.892;-123.962;2022-10-16T09:43:46;101220.09;;;12.73;81.67
51067;BME280;37112;45.892;-123.962;2022-10-16T09:46:01;101221.89;;;12.73;81.68
51067;BME280;37112;45.892;-123.962;2022-10-16T09:48:19;101227.26;;;12.73;82.02
51067;BME280;37112;45.892;-123.962;2022-10-16T09:50:32;101227.73;;;12.71;82.07
51067;BME280;37112;45.892;-123.962;2022-10-16T09:52:46;101230.92;;;12.69;82.10
51067;BME280;37112;45.892;-123.962;2022-10-16T09:55:00;101237.11;;;12.70;82.14
51067;BME280;37112;45.892;-123.962;2022-10-16T09:57:15;101240.56;;;12.69;82.17
51067;BME280;37112;45.892;-123.962;2022-10-16T09:59:28;101242.85;;;12.69;82.15
51067;BME280;37112;45.892;-123.962;2022-10-16T10:01:44;101241.19;;;12.70;82.32
51067;BME280;37112;45.892;-123.962;2022-10-16T10:03:58;101243.12;;;12.73;82.25
51067;BME280;37112;45.892;-123.962;2022-10-16T10:06:25;101246.43;;;12.74;82.18
51067;BME280;37112;45.892;-123.962;2022-10-16T10:08:38;101251.59;;;12.74;82.07
51067;BME280;37112;45.892;-123.962;2022-10-16T10:10:52;101250.50;;;12.74;82.31
51067;BME280;37112;45.892;-123.962;2022-10-16T10:13:14;101249.15;;;12.73;82.27
51067;BME280;37112;45.892;-123.962;2022-10-16T10:15:33;101247.42;;;12.72;82.47
51067;BME280;37112;45.892;-123.962;2022-10-16T10:17:50;101247.33;;;12.71;82.44
51067;BME280;37112;45.892;-123.962;2022-10-16T10:20:23;101249.96;;;12.72;82.53
51067;BME280;37112;45.892;-123.962;2022-10-16T10:22:43;101248.61;;;12.73;82.65
51067;BME280;37112;45.892;-123.962;2022-10-16T10:25:18;101250.64;;;12.75;82.74
51067;BME280;37112;45.892;-123.962;2022-10-16T10:27:39;101254.13;;;12.73;82.64
51067;BME280;37112;45.892;-123.962;2022-10-16T10:30:01;101255.20;;;12.73;82.69
51067;BME280;37112;45.892;-123.962;2022-10-16T10:32:24;101255.98;;;12.75;82.68
51067;BME280;37112;45.892;-123.962;2022-10-16T10:34:56;101261.52;;;12.74;82.87
51067;BME280;37112;45.892;-123.962;2022-10-16T10:37:23;101263.65;;;12.75;82.87
51067;BME280;37112;45.892;-123.962;2022-10-16T10:39:41;101263.20;;;12.74;82.76
51067;BME280;37112;45.892;-123.962;2022-10-16T10:42:14;101262.58;;;12.72;82.83
51067;BME280;37112;45.892;-123.962;2022-10-16T10:44:41;101258.48;;;12.70;82.72
51067;BME280;37112;45.892;-123.962;2022-10-16T10:47:01;101259.14;;;12.68;82.70
51067;BME280;37112;45.892;-123.962;2022-10-16T10:49:47;101257.02;;;12.67;82.79
51067;BME280;37112;45.892;-123.962;2022-10-16T10:52:19;101257.14;;;12.68;82.89
51067;BME280;37112;45.892;-123.962;2022-10-16T10:54:45;101252.52;;;12.68;82.97
51067;BME280;37112;45.892;-123.962;2022-10-16T10:57:06;101249.98;;;12.69;83.01
51067;BME280;37112;45.892;-123.962;2022-10-16T10:59:51;101251.23;;;12.69;82.92
51067;BME280;37112;45.892;-123.962;2022-10-16T11:02:13;101247.11;;;12.69;83.01
51067;BME280;37112;45.892;-123.962;2022-10-16T11:04:53;101246.73;;;12.69;83.06
51067;BME280;37112;45.892;-123.962;2022-10-16T11:07:13;101241.77;;;12.70;83.04
51067;BME280;37112;45.892;-123.962;2022-10-16T11:09:30;101241.18;;;12.70;83.12
51067;BME280;37112;45.892;-123.962;2022-10-16T11:11:48;101234.99;;;12.71;83.17
51067;BME280;37112;45.892;-123.962;2022-10-16T11:14:06;101236.16;;;12.73;83.14
51067;BME280;37112;45.892;-123.962;2022-10-16T11:16:26;101239.61;;;12.75;83.22
51067;BME280;37112;45.892;-123.962;2022-10-16T11:18:48;101238.77;;;12.76;83.28
51067;BME280;37112;45.892;-123.962;2022-10-16T11:21:02;101239.79;;;12.77;83.29
51067;BME280;37112;45.892;-123.962;2022-10-16T11:23:21;101242.92;;;12.78;83.31
51067;BME280;37112;45.892;-123.962;2022-10-16T11:25:36;101241.60;;;12.79;83.29
51067;BME280;37112;45.892;-123.962;2022-10-16T11:27:54;101237.30;;;12.80;83.27